Meteo Giornale » Osservazioni meteo Svizzera » Meiringen

ore: 18:50 - Osservazioni Meteo Meiringen
Lat. 46° 45' N Lon. 8° 7' E Alt. 577 metri s.l.m.

sereno Europe/Zurich

16 °C

Sereno

Temp. 24 Ore

6 °C

19 °C

Est/Sud-Est

11.1 Km/h

Dew point 12 °C

Umidità 77 %

Visibilità  10 Km

Il sole sorge alle ore 07:14

Il sole tramonta alle ore 19:25

Data e Ora Cielo e Fenomeni T °C DP °C Um. % Pres. hPa Vis. km Vento km/h
Oggi h: 18:50 sereno Sereno 16 12 77 1022 10 E/SE 11.1
Oggi h: 18:20 sereno Sereno 18 12 67 1022 10 N 3.7
Oggi h: 17:50 sereno Sereno 19 11 59 1021 10 N 3.7
Oggi h: 17:20 sereno Sereno 18 10 59 1022 10 N 5.5
Oggi h: 16:20 sereno Sereno 18 11 63 1022 10 SO 7.4
Oggi h: 15:50 sereno Sereno 18 11 63 1022 10 O/SO 9.3
Oggi h: 15:20 sereno Sereno 17 11 67 1022 10 SO 13
Oggi h: 14:50 sereno Sereno 17 11 67 1022 10 SO 9.3
Oggi h: 14:20 sereno Sereno 18 11 63 1023 10 O/SO 9.3
Oggi h: 13:50 sereno Sereno 17 10 63 1023 10 O/SO 13
Oggi h: 13:20 sereno Sereno 16 11 72 1023 10 O 11.1
Oggi h: 12:50 sereno Sereno 16 9 63 1023 10 N 5.5
Oggi h: 12:20 sereno Sereno 15 10 72 1023 10 N 3.7
Oggi h: 11:50 sereno Sereno 15 10 72 1024 10 N 1.8
Oggi h: 11:20 sereno Sereno 14 8 67 1024 10 N 0
Oggi h: 10:50 sereno Sereno 13 8 71 1024 10 N 3.7
Oggi h: 10:20 poco_nuvoloso Poco Nuvoloso 12 9 81 1024 10 N 1.8
Oggi h: 09:50 poco_nuvoloso Poco Nuvoloso 12 8 76 1024 10 N 0
Oggi h: 09:20 poco_nuvoloso Poco Nuvoloso 12 8 76 1024 10 N 0
Oggi h: 08:50 poco_nuvoloso Poco Nuvoloso 9 8 93 1024 10 N 3.7
Oggi h: 08:20 poco_nuvoloso Poco Nuvoloso 7 7 100 1024 10 N 1.8
Oggi h: 07:50 nuvoloso Nuvoloso 6 6 100 1024 10 N 5.5
Oggi h: 06:50 molto_nuvoloso Molto Nuvoloso 7 7 100 1024 10 E 7.4
Oggi h: 05:50 coperto Coperto 7 7 100 1024 10 N 0
Oggi h: 05:20 coperto Coperto 6 6 100 1024 10 N 0
Oggi h: 04:50 nebbia Nebbia 6 6 100 1024 1 N 5.5
Oggi h: 04:20 foschia Foschia 6 6 100 1024 5 N 1.8
Oggi h: 03:50 sereno Sereno 8 8 100 1024 10 N 0
Oggi h: 02:50 sereno Sereno 8 8 100 1024 10 N 5.5
Oggi h: 02:20 sereno Sereno 8 8 100 1024 10 E 7.4
Oggi h: 01:50 sereno Sereno 9 9 100 1024 10 E 9.3
Oggi h: 01:20 sereno Sereno 9 9 100 1024 10 E/SE 13
Oggi h: 00:20 sereno Sereno 9 9 100 1024 10 E/SE 13
Ieri h: 23:50 sereno Sereno 11 10 93 1024 10 E 11.1
Ieri h: 23:20 sereno Sereno 11 10 93 1024 10 E 13
Ieri h: 22:50 sereno Sereno 11 10 93 1024 10 E/SE 13
Ieri h: 22:20 sereno Sereno 12 10 87 1024 10 E 13
Ieri h: 21:50 sereno Sereno 12 10 87 1024 10 E 11.1
Ieri h: 21:20 sereno Sereno 12 10 87 1024 10 E 13
Ieri h: 20:50 sereno Sereno 15 10 72 1024 10 E 13
Ieri h: 20:20 sereno Sereno 15 10 72 1024 10 NE 20.3
Ieri h: 19:50 sereno Sereno 15 10 72 1024 10 NE 20.3